Time;durP1;ratioP1;P1;durP2;ratioP2;P2;SDS_P1;SDS_P2;PMS_P1;PMS_P2;Temp;Humidity;BMP_temperature;BMP_pressure;BME280_temperature;BME280_humidity;BME280_pressure;Samples;Min_cycle;Max_cycle;Signal;HPM_P1;HPM_P2
2023/04/16 00:00:12;;;;;;;1.05;1.05;;;;;;;8.64;61.92;101310.97;5088935;28;20012;-59
2023/04/16 00:02:38;;;;;;;0.40;0.40;;;;;;;8.60;62.04;101306.59;5107196;28;20042;-59
2023/04/16 00:05:03;;;;;;;0.50;0.50;;;;;;;8.62;62.00;101314.38;5106838;28;20020;-61
2023/04/16 00:07:29;;;;;;;6.63;2.45;;;;;;;8.60;62.18;101311.78;5107024;28;20020;-60
2023/04/16 00:09:54;;;;;;;0.50;0.50;;;;;;;8.60;61.88;101304.00;5106261;28;20024;-60
2023/04/16 00:12:20;;;;;;;0.40;0.40;;;;;;;8.60;62.06;101305.72;5106970;28;20320;-61
2023/04/16 00:14:46;;;;;;;0.40;0.40;;;;;;;8.59;62.03;101297.09;5106828;28;20075;-60
2023/04/16 00:17:11;;;;;;;0.40;0.40;;;;;;;8.59;61.93;101312.63;5106895;28;20054;-60
2023/04/16 00:19:37;;;;;;;0.50;0.50;;;;;;;8.57;62.05;101311.72;5106662;28;20415;-59
2023/04/16 00:22:02;;;;;;;0.60;0.60;;;;;;;8.61;62.15;101312.66;5106012;28;20091;-60
2023/04/16 00:24:28;;;;;;;0.40;0.40;;;;;;;8.56;61.95;101315.19;5088636;28;20016;-61
2023/04/16 00:26:53;;;;;;;1.08;0.95;;;;;;;8.54;62.14;101309.06;5106667;28;20403;-59
2023/04/16 00:29:19;;;;;;;0.40;0.40;;;;;;;8.54;62.15;101302.22;5106259;28;20032;-61
2023/04/16 00:31:44;;;;;;;0.40;0.40;;;;;;;8.57;61.97;101308.25;5105223;28;20044;-61
2023/04/16 00:34:10;;;;;;;0.50;0.50;;;;;;;8.56;61.78;101304.81;5106086;28;20044;-61
2023/04/16 00:36:35;;;;;;;0.50;0.50;;;;;;;8.53;61.99;101304.75;5104966;28;20080;-58
2023/04/16 00:39:00;;;;;;;3.08;2.88;;;;;;;8.50;61.92;101308.16;5088554;28;20055;-60
2023/04/16 00:41:26;;;;;;;0.40;0.40;;;;;;;8.56;61.83;101310.00;5105298;28;20110;-61
2023/04/16 00:43:52;;;;;;;0.43;0.43;;;;;;;8.48;61.88;101315.00;5106235;28;20008;-60
2023/04/16 00:46:22;;;;;;;0.40;0.40;;;;;;;8.43;61.92;101308.91;5106344;28;20038;-59
2023/04/16 00:48:49;;;;;;;0.40;0.40;;;;;;;8.41;62.01;101314.06;5106011;28;20100;-59
2023/04/16 00:51:15;;;;;;;2.35;2.25;;;;;;;8.40;62.08;101316.63;5088015;28;20030;-59
2023/04/16 00:53:42;;;;;;;0.40;0.40;;;;;;;8.37;62.20;101308.81;5105955;28;20024;-60
2023/04/16 00:56:09;;;;;;;0.40;0.40;;;;;;;8.34;62.08;101307.03;5087958;28;20020;-60
2023/04/16 00:58:34;;;;;;;0.40;0.40;;;;;;;8.31;62.28;101310.47;5105930;28;20019;-60
2023/04/16 01:01:01;;;;;;;0.50;0.50;;;;;;;8.30;62.12;101313.03;5106125;28;20024;-60
2023/04/16 01:03:38;;;;;;;0.50;0.50;;;;;;;8.26;62.28;101311.25;5105742;28;20026;-60
2023/04/16 01:06:05;;;;;;;1.48;1.38;;;;;;;8.18;62.31;101324.91;5105940;28;20429;-60
2023/04/16 01:08:30;;;;;;;0.75;0.75;;;;;;;8.15;62.51;101319.69;5105743;28;20020;-59
2023/04/16 01:10:56;;;;;;;1.60;1.50;;;;;;;8.10;62.46;101321.31;5105767;28;20108;-59
2023/04/16 01:13:21;;;;;;;0.80;0.77;;;;;;;8.06;62.36;101320.41;5105796;28;20016;-59
2023/04/16 01:15:46;;;;;;;0.90;0.90;;;;;;;8.05;62.54;101322.97;5105815;28;20026;-60
2023/04/16 01:18:16;;;;;;;0.40;0.40;;;;;;;8.04;62.22;101326.41;5105801;28;20284;-60
2023/04/16 01:20:42;;;;;;;0.68;0.68;;;;;;;7.96;62.54;101328.84;5105487;28;20099;-62
2023/04/16 01:23:07;;;;;;;0.50;0.50;;;;;;;7.94;62.63;101331.41;5105437;28;20097;-59
2023/04/16 01:25:33;;;;;;;0.40;0.40;;;;;;;7.92;62.63;101329.66;5087217;28;20043;-61
2023/04/16 01:27:58;;;;;;;2.30;2.15;;;;;;;7.87;62.71;101333.88;5105338;28;20043;-61
2023/04/16 01:30:24;;;;;;;0.80;0.80;;;;;;;7.86;62.85;101326.97;5105538;28;20024;-60
2023/04/16 01:32:49;;;;;;;1.17;1.08;;;;;;;7.77;62.96;101322.47;5104555;28;20059;-60
2023/04/16 01:35:17;;;;;;;0.50;0.50;;;;;;;7.85;62.76;101332.97;5104974;28;20030;-59
2023/04/16 01:37:42;;;;;;;0.93;0.93;;;;;;;7.72;63.00;101316.34;5105429;28;20028;-59
2023/04/16 01:40:08;;;;;;;0.82;0.82;;;;;;;7.78;63.14;101338.03;5105018;28;20130;-59
2023/04/16 01:42:34;;;;;;;0.60;0.60;;;;;;;7.78;62.97;101344.94;5105336;28;20020;-61
2023/04/16 01:44:59;;;;;;;0.70;0.70;;;;;;;7.75;63.10;101335.38;5105423;28;20051;-60
2023/04/16 01:47:25;;;;;;;1.08;1.08;;;;;;;7.73;62.94;101337.06;5103660;28;20020;-60
2023/04/16 01:49:50;;;;;;;0.50;0.50;;;;;;;7.72;63.12;101339.63;5104113;28;20103;-60
2023/04/16 01:52:15;;;;;;;0.50;0.50;;;;;;;7.65;63.18;101334.34;5104586;28;20035;-61
2023/04/16 01:54:41;;;;;;;0.60;0.60;;;;;;;7.63;63.05;101330.88;5104380;28;20102;-60
2023/04/16 01:57:06;;;;;;;0.50;0.50;;;;;;;7.62;63.13;101341.19;5086530;28;20032;-59
2023/04/16 01:59:32;;;;;;;0.50;0.50;;;;;;;7.57;63.20;101335.94;5104023;28;20522;-60
2023/04/16 02:02:05;;;;;;;0.60;0.60;;;;;;;7.56;63.14;101334.16;5103705;28;20066;-59
2023/04/16 02:04:31;;;;;;;0.50;0.50;;;;;;;7.50;63.02;101334.03;5104362;28;20019;-60
2023/04/16 02:06:56;;;;;;;0.40;0.40;;;;;;;7.48;63.00;101334.00;5086427;28;20024;-61
2023/04/16 02:09:21;;;;;;;0.50;0.50;;;;;;;7.44;63.10;101334.81;5104534;28;20027;-60
2023/04/16 02:11:47;;;;;;;0.45;0.45;;;;;;;7.42;63.15;101336.47;5104367;28;20028;-59
2023/04/16 02:14:12;;;;;;;0.50;0.50;;;;;;;7.41;63.37;101335.59;5104468;28;20020;-60
2023/04/16 02:16:38;;;;;;;3.08;2.88;;;;;;;7.40;63.12;101341.63;5104614;28;20028;-59
2023/04/16 02:19:03;;;;;;;0.40;0.40;;;;;;;7.40;63.06;101333.88;5103665;28;20430;-59
2023/04/16 02:21:28;;;;;;;0.40;0.40;;;;;;;7.36;62.99;101337.25;5104301;28;20028;-60
2023/04/16 02:23:54;;;;;;;0.40;0.40;;;;;;;7.37;63.14;101338.97;5104536;28;20024;-59
2023/04/16 02:26:19;;;;;;;0.50;0.50;;;;;;;7.39;62.96;101349.34;5104541;28;20031;-58
2023/04/16 02:28:45;;;;;;;0.45;0.45;;;;;;;7.39;62.89;101329.56;5104461;28;20103;-60
2023/04/16 02:31:10;;;;;;;0.95;0.95;;;;;;;7.31;62.80;101329.41;5104241;28;20066;-59
2023/04/16 02:33:36;;;;;;;0.50;0.50;;;;;;;7.32;62.82;101335.44;5103397;28;20035;-61
2023/04/16 02:36:01;;;;;;;0.50;0.50;;;;;;;7.32;62.67;101335.44;5104296;28;20024;-59
2023/04/16 02:38:26;;;;;;;0.50;0.50;;;;;;;7.30;62.68;101334.53;5103268;28;20085;-59
2023/04/16 02:40:52;;;;;;;0.50;0.50;;;;;;;7.30;62.57;101331.97;5104105;28;20024;-61
2023/04/16 02:43:17;;;;;;;0.50;0.50;;;;;;;7.26;62.48;101335.31;5104339;28;20083;-60
2023/04/16 02:45:43;;;;;;;0.63;0.63;;;;;;;7.25;62.36;101334.41;5103760;28;20020;-60
2023/04/16 02:48:08;;;;;;;0.43;0.43;;;;;;;7.25;62.16;101328.41;5103954;28;20027;-60
2023/04/16 02:50:34;;;;;;;0.50;0.50;;;;;;;7.22;62.36;101331.78;5104034;28;20046;-59
2023/04/16 02:52:59;;;;;;;0.40;0.40;;;;;;;7.17;62.25;101329.09;5104149;28;20073;-59
2023/04/16 02:55:25;;;;;;;0.50;0.50;;;;;;;7.19;62.35;101326.56;5104225;28;20020;-60
2023/04/16 02:57:51;;;;;;;0.60;0.60;;;;;;;7.17;62.05;101330.84;5104276;28;20020;-59
2023/04/16 03:00:17;;;;;;;0.50;0.50;;;;;;;7.13;61.92;101329.88;5104148;28;20035;-61
2023/04/16 03:02:43;;;;;;;0.40;0.40;;;;;;;7.12;62.00;101333.31;5104145;28;20020;-59
2023/04/16 03:05:09;;;;;;;1.40;1.30;;;;;;;7.09;61.96;101337.53;5103826;28;20039;-60
2023/04/16 03:07:34;;;;;;;0.45;0.45;;;;;;;7.06;61.85;101333.19;5104189;28;20024;-60
2023/04/16 03:10:00;;;;;;;0.40;0.40;;;;;;;7.06;61.87;101341.78;5103930;28;20031;-59
2023/04/16 03:12:25;;;;;;;0.80;0.77;;;;;;;7.07;62.00;101337.50;5103961;28;20024;-60
2023/04/16 03:14:53;;;;;;;1.40;1.30;;;;;;;7.12;62.10;101337.59;5104201;28;20028;-60
2023/04/16 03:17:19;;;;;;;0.60;0.60;;;;;;;7.11;61.83;101331.56;5103927;28;20016;-59
2023/04/16 03:19:44;;;;;;;0.40;0.40;;;;;;;7.12;61.86;101335.91;5104016;28;20084;-60
2023/04/16 03:22:10;;;;;;;0.40;0.40;;;;;;;7.16;61.93;101344.56;5103810;28;20024;-60
2023/04/16 03:24:37;;;;;;;0.43;0.43;;;;;;;7.22;61.75;101338.69;5085629;28;20020;-61
2023/04/16 03:27:02;;;;;;;0.50;0.50;;;;;;;7.15;61.60;101322.19;5103330;28;20080;-60
2023/04/16 03:29:27;;;;;;;0.82;0.82;;;;;;;7.21;61.40;101345.53;5102898;28;20021;-58
2023/04/16 03:31:53;;;;;;;1.33;1.33;;;;;;;7.16;61.59;101339.41;5103503;28;20075;-59
2023/04/16 03:34:18;;;;;;;0.50;0.50;;;;;;;7.16;61.71;101340.28;5103578;28;20442;-59
2023/04/16 03:36:43;;;;;;;0.47;0.47;;;;;;;7.13;61.43;101344.50;5103947;28;20024;-59
2023/04/16 03:39:09;;;;;;;0.50;0.50;;;;;;;7.12;61.37;101347.94;5103674;28;20419;-59
2023/04/16 03:41:34;;;;;;;0.50;0.50;;;;;;;7.17;61.23;101346.31;5103757;28;20088;-60
2023/04/16 03:44:00;;;;;;;0.60;0.60;;;;;;;6.99;61.24;101328.72;5103845;28;20012;-59
2023/04/16 03:46:25;;;;;;;1.27;1.27;;;;;;;7.12;61.38;101346.25;5103770;28;20037;-60
2023/04/16 03:48:51;;;;;;;0.50;0.50;;;;;;;7.12;61.46;101342.78;5103559;28;20078;-59
2023/04/16 03:51:16;;;;;;;0.70;0.70;;;;;;;7.11;61.38;101347.06;5085578;28;20031;-58
2023/04/16 03:53:41;;;;;;;0.40;0.40;;;;;;;7.16;61.15;101344.56;5103690;28;20373;-60
2023/04/16 03:56:07;;;;;;;0.50;0.50;;;;;;;7.15;61.25;101351.47;5103797;28;20061;-60
2023/04/16 03:58:32;;;;;;;0.40;0.40;;;;;;;7.15;61.01;101350.59;5107119;28;20024;-58
2023/04/16 04:00:57;;;;;;;0.47;0.47;;;;;;;7.12;61.02;101340.19;5107155;28;20071;-59
2023/04/16 04:03:24;;;;;;;0.47;0.47;;;;;;;7.15;61.11;101354.03;5088970;28;20161;-60
2023/04/16 04:05:50;;;;;;;0.50;0.50;;;;;;;7.13;61.10;101352.25;5106925;28;20601;-59
2023/04/16 04:08:15;;;;;;;0.70;0.70;;;;;;;7.12;60.96;101356.56;5107303;28;20083;-59
2023/04/16 04:10:41;;;;;;;0.50;0.50;;;;;;;7.12;60.90;101346.25;5107188;28;20012;-60
2023/04/16 04:13:06;;;;;;;0.40;0.40;;;;;;;7.15;60.76;101354.03;5106970;28;20047;-59
2023/04/16 04:15:32;;;;;;;0.40;0.40;;;;;;;7.19;60.60;101361.00;5106896;28;20042;-59
2023/04/16 04:17:58;;;;;;;0.93;0.93;;;;;;;7.21;60.30;101352.41;5106996;28;20042;-58
2023/04/16 04:20:23;;;;;;;0.47;0.47;;;;;;;7.18;60.56;101355.81;5106951;28;20081;-60
2023/04/16 04:22:49;;;;;;;0.82;0.82;;;;;;;7.18;60.03;101353.22;5106838;28;20380;-60
2023/04/16 04:25:15;;;;;;;0.70;0.70;;;;;;;7.15;60.25;101351.47;5105135;28;20028;-58
2023/04/16 04:27:41;;;;;;;0.40;0.40;;;;;;;7.16;60.29;101349.72;5106524;28;20028;-63
2023/04/16 04:30:07;;;;;;;0.50;0.50;;;;;;;7.15;60.13;101354.03;5106773;28;20024;-60
2023/04/16 04:32:32;;;;;;;0.50;0.50;;;;;;;7.17;59.88;101354.06;5105684;28;20055;-61
2023/04/16 04:35:00;;;;;;;0.60;0.60;;;;;;;7.16;59.87;101355.78;5105758;28;20054;-59
2023/04/16 04:37:25;;;;;;;0.50;0.50;;;;;;;7.07;59.63;101342.69;5106317;28;20043;-59
2023/04/16 04:39:51;;;;;;;0.40;0.40;;;;;;;7.11;59.60;101354.81;5105244;28;20031;-59
2023/04/16 04:42:17;;;;;;;0.47;0.47;;;;;;;7.11;59.49;101354.81;5087059;28;20020;-61
2023/04/16 04:44:43;;;;;;;0.40;0.40;;;;;;;7.09;59.58;101364.25;5105118;28;20054;-60
2023/04/16 04:47:09;;;;;;;0.50;0.50;;;;;;;7.06;59.46;101354.72;5105949;28;20024;-60
2023/04/16 04:49:35;;;;;;;0.60;0.60;;;;;;;7.07;59.20;101353.00;5105567;28;20081;-59
2023/04/16 04:52:00;;;;;;;0.50;0.50;;;;;;;7.06;59.29;101369.34;5105000;28;20118;-59
2023/04/16 04:54:27;;;;;;;0.40;0.40;;;;;;;7.08;58.98;101367.66;5105866;28;20027;-62
2023/04/16 04:56:53;;;;;;;0.50;0.50;;;;;;;7.07;59.04;101366.78;5105994;28;20028;-61
2023/04/16 04:59:19;;;;;;;0.60;0.60;;;;;;;7.05;59.11;101365.00;5105993;28;20054;-59
2023/04/16 05:01:45;;;;;;;0.45;0.45;;;;;;;7.05;59.13;101365.00;5105898;28;20103;-60
2023/04/16 05:04:10;;;;;;;0.50;0.50;;;;;;;7.06;58.97;101361.59;5105451;28;20058;-59
2023/04/16 05:06:36;;;;;;;0.40;0.40;;;;;;;7.04;59.02;101363.28;5106090;28;20016;-61
2023/04/16 05:09:01;;;;;;;0.43;0.43;;;;;;;7.06;58.87;101365.03;5087300;28;20030;-59
2023/04/16 05:11:27;;;;;;;1.05;1.05;;;;;;;7.04;58.91;101368.44;5105708;28;20024;-57
2023/04/16 05:13:52;;;;;;;0.60;0.60;;;;;;;7.04;58.69;101373.59;5105536;28;20540;-60
2023/04/16 05:16:17;;;;;;;0.70;0.70;;;;;;;7.02;58.57;101372.69;5105566;28;20036;-60
2023/04/16 05:18:43;;;;;;;0.40;0.40;;;;;;;7.03;58.70;101375.28;5105267;28;20077;-59
2023/04/16 05:21:08;;;;;;;0.40;0.40;;;;;;;7.05;58.65;101380.50;5105485;28;20020;-59
2023/04/16 05:23:34;;;;;;;0.40;0.40;;;;;;;7.03;58.35;101382.16;5105084;28;20436;-59
2023/04/16 05:25:59;;;;;;;0.50;0.50;;;;;;;7.01;58.22;101376.13;5087175;28;20016;-59
2023/04/16 05:28:24;;;;;;;0.50;0.50;;;;;;;7.00;58.62;101387.25;5087156;28;20558;-59
2023/04/16 05:30:50;;;;;;;0.40;0.40;;;;;;;6.99;58.46;101385.53;5105387;28;20046;-59
2023/04/16 05:33:15;;;;;;;0.40;0.40;;;;;;;6.97;58.50;101382.03;5086910;28;20044;-60
2023/04/16 05:35:41;;;;;;;0.50;0.50;;;;;;;6.97;58.01;101385.50;5105039;28;20019;-60
2023/04/16 05:38:06;;;;;;;1.35;1.35;;;;;;;7.01;57.92;101381.28;5105335;28;20024;-63
2023/04/16 05:40:31;;;;;;;0.40;0.40;;;;;;;6.99;57.83;101377.78;5105024;28;20515;-59
2023/04/16 05:42:57;;;;;;;0.60;0.60;;;;;;;6.97;57.73;101379.44;5105274;28;20020;-59
2023/04/16 05:45:22;;;;;;;1.30;1.25;;;;;;;6.88;57.96;101362.94;5086959;28;20054;-59
2023/04/16 05:47:48;;;;;;;0.50;0.50;;;;;;;7.00;57.70;101379.50;5105046;28;20035;-60
2023/04/16 05:50:13;;;;;;;0.50;0.50;;;;;;;7.03;57.93;101383.03;5104606;28;20066;-59
2023/04/16 05:52:39;;;;;;;0.50;0.50;;;;;;;7.05;57.70;101383.06;5104976;28;20024;-59
2023/04/16 05:55:05;;;;;;;0.40;0.40;;;;;;;7.04;57.75;101386.50;5104947;28;20020;-59
2023/04/16 05:57:32;;;;;;;0.50;0.50;;;;;;;7.04;57.69;101386.50;5105002;28;20029;-61
2023/04/16 05:59:57;;;;;;;0.50;0.50;;;;;;;7.03;57.71;101389.91;5104948;28;20024;-60
2023/04/16 06:02:23;;;;;;;0.40;0.40;;;;;;;7.05;57.71;101399.44;5086528;28;20123;-59
2023/04/16 06:04:48;;;;;;;0.77;0.77;;;;;;;7.04;57.65;101383.94;5104642;28;20386;-59
2023/04/16 06:07:14;;;;;;;0.50;0.50;;;;;;;7.11;57.29;101392.69;5104823;28;20027;-59
2023/04/16 06:09:39;;;;;;;0.50;0.50;;;;;;;7.11;57.30;101395.28;5104951;28;20020;-60
2023/04/16 06:12:05;;;;;;;0.50;0.50;;;;;;;7.09;57.36;101400.41;5104819;28;20213;-60
2023/04/16 06:14:30;;;;;;;0.40;0.40;;;;;;;7.14;57.40;101400.50;5104555;28;20356;-60
2023/04/16 06:16:56;;;;;;;0.45;0.45;;;;;;;7.13;57.16;101396.16;5104833;28;20352;-62
2023/04/16 06:19:21;;;;;;;0.50;0.50;;;;;;;7.17;56.82;101397.97;5104053;28;20024;-58
2023/04/16 06:21:46;;;;;;;0.43;0.43;;;;;;;7.17;56.67;101401.41;5104603;28;20518;-60
2023/04/16 06:24:12;;;;;;;0.50;0.50;;;;;;;7.22;56.58;101395.50;5104555;28;20038;-62
2023/04/16 06:26:37;;;;;;;0.50;0.50;;;;;;;7.21;56.58;101398.91;5104868;28;20034;-60
2023/04/16 06:29:03;;;;;;;0.50;0.50;;;;;;;7.21;56.07;101385.97;5104687;28;20012;-59
2023/04/16 06:31:29;;;;;;;0.68;0.68;;;;;;;7.18;56.43;101405.75;5104326;28;20032;-61
2023/04/16 06:33:54;;;;;;;0.50;0.50;;;;;;;7.14;56.52;101403.94;5085938;28;20107;-61
2023/04/16 06:36:20;;;;;;;0.82;0.82;;;;;;;7.19;56.35;101402.34;5104545;28;20051;-59
2023/04/16 06:38:45;;;;;;;0.50;0.50;;;;;;;7.23;56.05;101399.81;5104522;28;20020;-60
2023/04/16 06:41:11;;;;;;;0.60;0.60;;;;;;;7.24;55.93;101394.69;5104219;28;20153;-60
2023/04/16 06:43:37;;;;;;;0.50;0.50;;;;;;;7.25;55.92;101401.56;5104425;28;20016;-58
2023/04/16 06:46:02;;;;;;;0.40;0.40;;;;;;;7.28;55.67;101401.69;5104347;28;20055;-59
2023/04/16 06:48:28;;;;;;;0.50;0.50;;;;;;;7.27;55.57;101399.91;5104419;28;20020;-60
2023/04/16 06:50:55;;;;;;;0.77;0.77;;;;;;;7.36;55.34;101413.88;5104059;28;20052;-59
2023/04/16 06:53:20;;;;;;;0.47;0.47;;;;;;;7.30;55.13;101389.63;5104319;28;20020;-59
2023/04/16 06:55:46;;;;;;;0.40;0.40;;;;;;;7.38;55.26;101402.72;5104304;28;20035;-60
2023/04/16 06:58:11;;;;;;;0.47;0.47;;;;;;;7.42;55.17;101408.81;5104266;28;20027;-60
2023/04/16 07:00:36;;;;;;;0.50;0.50;;;;;;;7.46;55.05;101409.78;5104137;28;20434;-61
2023/04/16 07:03:02;;;;;;;0.43;0.43;;;;;;;7.51;54.87;101413.28;5104388;28;20039;-59
2023/04/16 07:05:27;;;;;;;0.50;0.50;;;;;;;7.55;54.92;101417.72;5103687;28;20031;-60
2023/04/16 07:07:55;;;;;;;2.05;1.95;;;;;;;7.58;55.07;101422.94;5103366;28;20024;-62
2023/04/16 07:10:20;;;;;;;0.40;0.40;;;;;;;7.62;54.84;101432.50;5103657;28;20024;-59
2023/04/16 07:12:46;;;;;;;0.50;0.50;;;;;;;7.61;54.74;101420.41;5103567;28;20020;-59
2023/04/16 07:15:11;;;;;;;0.50;0.50;;;;;;;7.64;54.90;101428.22;5103844;28;20030;-60
2023/04/16 07:17:37;;;;;;;0.50;0.50;;;;;;;7.66;54.85;101425.69;5103670;28;20028;-60
2023/04/16 07:20:02;;;;;;;0.50;0.50;;;;;;;7.69;54.75;101433.50;5103793;28;20167;-58
2023/04/16 07:22:28;;;;;;;0.50;0.50;;;;;;;7.68;54.65;101427.44;5103621;28;20427;-60
2023/04/16 07:24:53;;;;;;;0.50;0.50;;;;;;;7.72;54.47;101423.22;5103744;28;20081;-61
2023/04/16 07:27:18;;;;;;;0.50;0.50;;;;;;;7.80;54.39;101428.53;5084863;28;20442;-61
2023/04/16 07:29:49;;;;;;;0.50;0.50;;;;;;;7.80;54.10;101426.81;5102668;28;20024;-62
2023/04/16 07:32:14;;;;;;;0.73;0.73;;;;;;;7.89;54.20;101433.88;5105309;28;20420;-61
2023/04/16 07:34:40;;;;;;;0.50;0.50;;;;;;;7.92;53.94;101423.59;5107377;28;20083;-60
2023/04/16 07:37:05;;;;;;;0.70;0.70;;;;;;;7.97;53.91;101428.00;5107504;28;20068;-60
2023/04/16 07:39:30;;;;;;;0.93;0.93;;;;;;;7.97;53.67;101428.84;5107830;28;20016;-61
2023/04/16 07:41:56;;;;;;;0.47;0.47;;;;;;;7.99;53.54;101426.28;5107495;28;20055;-60
2023/04/16 07:44:21;;;;;;;0.40;0.40;;;;;;;7.94;53.68;101410.69;5107513;28;20036;-61
2023/04/16 07:46:47;;;;;;;2.38;1.48;;;;;;;8.09;53.92;101424.75;5107432;28;20077;-60
2023/04/16 07:49:12;;;;;;;0.50;0.50;;;;;;;8.21;53.68;101422.38;5107184;28;20115;-59
2023/04/16 07:51:38;;;;;;;0.98;0.98;;;;;;;8.29;53.61;101425.97;5106672;28;20051;-61
2023/04/16 07:54:03;;;;;;;1.13;1.13;;;;;;;8.32;53.68;101432.94;5107188;28;20028;-60
2023/04/16 07:56:29;;;;;;;0.70;0.70;;;;;;;8.42;53.69;101429.66;5107081;28;20039;-59
2023/04/16 07:58:54;;;;;;;0.40;0.40;;;;;;;8.48;53.64;101430.63;5106725;28;20020;-58
2023/04/16 08:01:20;;;;;;;0.40;0.40;;;;;;;8.58;53.01;101431.69;5107149;28;20038;-60
2023/04/16 08:03:45;;;;;;;0.50;0.50;;;;;;;8.61;53.47;101436.91;5106855;28;20021;-60
2023/04/16 08:06:11;;;;;;;0.40;0.40;;;;;;;8.70;52.97;101426.69;5088739;28;20027;-61
2023/04/16 08:08:36;;;;;;;0.50;0.50;;;;;;;8.74;53.05;101438.81;5106843;28;20020;-60
2023/04/16 08:11:02;;;;;;;0.50;0.50;;;;;;;8.76;52.97;101446.63;5106392;28;20016;-60
2023/04/16 08:13:27;;;;;;;0.50;0.50;;;;;;;8.79;53.16;101438.91;5106790;28;20020;-60
2023/04/16 08:15:52;;;;;;;0.50;0.50;;;;;;;8.83;52.98;101442.41;5107048;28;20403;-60
2023/04/16 08:18:18;;;;;;;0.98;0.93;;;;;;;8.86;52.51;101447.63;5106849;28;20046;-60
2023/04/16 08:20:43;;;;;;;0.50;0.50;;;;;;;8.78;52.73;101451.00;5106403;28;20415;-61
2023/04/16 08:23:09;;;;;;;0.40;0.40;;;;;;;8.75;52.66;101458.72;5106695;28;20433;-60
2023/04/16 08:25:34;;;;;;;0.50;0.50;;;;;;;8.71;52.43;101459.50;5106654;28;20020;-59
2023/04/16 08:28:00;;;;;;;0.50;0.50;;;;;;;8.63;52.65;101459.38;5106761;28;20027;-60
2023/04/16 08:30:26;;;;;;;0.45;0.45;;;;;;;8.58;52.40;101468.75;5106709;28;20020;-60
2023/04/16 08:32:51;;;;;;;0.60;0.60;;;;;;;8.50;52.51;101475.53;5106238;28;20096;-61
2023/04/16 08:35:17;;;;;;;0.50;0.50;;;;;;;8.46;52.42;101473.69;5106700;28;20123;-61
2023/04/16 08:37:42;;;;;;;0.50;0.50;;;;;;;8.40;52.49;101479.66;5106332;28;20026;-60
2023/04/16 08:40:08;;;;;;;0.50;0.50;;;;;;;8.37;52.45;101477.00;5106312;28;20059;-59
2023/04/16 08:42:52;;;;;;;1.10;1.10;;;;;;;8.38;52.45;101477.03;5105526;28;20058;-60
2023/04/16 08:45:18;;;;;;;0.40;0.40;;;;;;;8.43;52.49;101477.97;5106175;28;20467;-60
2023/04/16 08:47:50;;;;;;;0.40;0.40;;;;;;;8.48;52.58;101479.78;5106348;28;20042;-60
2023/04/16 08:50:16;;;;;;;;;;;;;;;8.55;52.46;101479.94;5106309;28;20015;-59
2023/04/16 08:52:51;;;;;;;0.60;0.60;;;;;;;8.60;52.40;101480.03;5105784;28;19915;-61
2023/04/16 08:55:20;;;;;;;0.50;0.50;;;;;;;8.63;52.37;101476.59;5106039;28;20020;-60
2023/04/16 08:57:56;;;;;;;0.60;0.60;;;;;;;8.72;52.40;101483.69;5105747;28;20023;-59
2023/04/16 09:00:22;;;;;;;0.50;0.50;;;;;;;8.77;52.71;101482.03;5087743;28;20012;-60
2023/04/16 09:02:49;;;;;;;0.50;0.50;;;;;;;8.90;52.60;101481.38;5105830;28;20030;-61
2023/04/16 09:05:16;;;;;;;0.50;0.50;;;;;;;9.02;52.58;101482.41;5105367;28;20024;-62
2023/04/16 09:07:44;;;;;;;0.50;0.50;;;;;;;9.15;52.18;101475.72;5105779;28;20016;-61
2023/04/16 09:10:10;;;;;;;0.47;0.47;;;;;;;9.30;52.16;101483.69;5105614;28;20028;-60
2023/04/16 09:12:36;;;;;;;0.57;0.57;;;;;;;9.42;51.46;101485.56;5104655;28;20087;-60
2023/04/16 09:15:02;;;;;;;1.08;1.08;;;;;;;9.52;51.29;101488.31;5104508;28;20047;-60
2023/04/16 09:17:27;;;;;;;0.40;0.40;;;;;;;9.63;51.58;101491.06;5104412;28;20031;-61
2023/04/16 09:19:53;;;;;;;0.40;0.40;;;;;;;9.71;51.41;101491.16;5104308;28;20020;-61
2023/04/16 09:22:19;;;;;;;0.40;0.40;;;;;;;9.89;50.90;101495.66;5104358;28;20031;-61
2023/04/16 09:24:45;;;;;;;0.40;0.40;;;;;;;9.96;50.93;101499.22;5086029;28;20079;-61
2023/04/16 09:27:12;;;;;;;0.50;0.50;;;;;;;9.96;50.80;101494.91;5104306;28;20029;-62
2023/04/16 09:29:40;;;;;;;1.08;1.08;;;;;;;9.97;50.56;101490.59;5104353;28;20023;-60
2023/04/16 09:32:10;;;;;;;0.40;0.40;;;;;;;9.95;50.42;101489.72;5105103;28;20044;-61
2023/04/16 09:34:52;;;;;;;0.40;0.40;;;;;;;10.04;50.76;101488.09;5105107;28;20020;-61
2023/04/16 09:37:18;;;;;;;0.32;0.32;;;;;;;10.09;50.43;101492.44;5105531;28;20020;-61
2023/04/16 09:39:51;;;;;;;0.40;0.40;;;;;;;10.09;50.14;101487.25;5105132;28;20081;-60
2023/04/16 09:42:21;;;;;;;0.40;0.40;;;;;;;10.13;50.27;101487.31;5104447;28;20275;-61
2023/04/16 09:44:48;;;;;;;0.85;0.85;;;;;;;10.24;50.13;101491.75;5104281;28;20020;-60
2023/04/16 09:47:14;;;;;;;0.60;0.60;;;;;;;10.30;49.24;101486.63;5086309;28;20032;-60
2023/04/16 09:49:43;;;;;;;0.50;0.50;;;;;;;10.41;48.86;101489.31;5105625;28;20030;-61
2023/04/16 09:52:15;;;;;;;0.50;0.50;;;;;;;10.54;48.84;101495.53;5105838;28;20035;-60
2023/04/16 09:54:52;;;;;;;0.70;0.70;;;;;;;10.61;47.86;101489.53;5104139;28;20020;-60
2023/04/16 09:57:22;;;;;;;0.40;0.40;;;;;;;10.65;48.81;101491.28;5105938;28;20082;-60
2023/04/16 09:59:59;;;;;;;0.40;0.40;;;;;;;10.95;49.22;101504.53;5105733;28;20028;-61
2023/04/16 10:02:28;;;;;;;0.40;0.40;;;;;;;11.25;49.08;101494.34;5105508;28;20054;-61
2023/04/16 10:04:54;;;;;;;2.17;2.05;;;;;;;11.46;48.57;101495.31;5105430;28;20032;-61
2023/04/16 10:07:20;;;;;;;0.40;0.40;;;;;;;11.54;47.84;101485.84;5105302;28;20043;-60
2023/04/16 10:09:47;;;;;;;0.40;0.40;;;;;;;11.52;48.09;101484.94;5105447;28;20020;-60
2023/04/16 10:12:13;;;;;;;0.43;0.43;;;;;;;11.58;47.80;101487.56;5105372;28;20403;-61
2023/04/16 10:14:40;;;;;;;0.82;0.82;;;;;;;11.61;47.55;101491.94;5105231;28;20058;-60
2023/04/16 10:17:06;;;;;;;10.57;1.98;;;;;;;11.71;48.35;101498.06;5105335;28;20475;-60
2023/04/16 10:19:32;;;;;;;0.45;0.45;;;;;;;11.84;47.73;101497.25;5105377;28;20077;-61
2023/04/16 10:21:58;;;;;;;0.40;0.40;;;;;;;11.93;47.52;101492.94;5105532;28;20019;-59
2023/04/16 10:24:34;;;;;;;6.43;1.13;;;;;;;12.08;47.70;101487.81;5105436;28;20063;-60
2023/04/16 10:27:00;;;;;;;0.40;0.40;;;;;;;12.19;47.33;101500.00;5105256;28;20047;-61
2023/04/16 10:29:28;;;;;;;0.50;0.50;;;;;;;12.35;47.31;101499.16;5105403;28;20075;-60
2023/04/16 10:31:55;;;;;;;0.40;0.40;;;;;;;12.50;47.27;101490.50;5104393;28;20498;-61
2023/04/16 10:34:22;;;;;;;0.40;0.40;;;;;;;12.76;46.89;101499.19;5105103;28;20024;-62
2023/04/16 10:36:51;;;;;;;0.40;0.40;;;;;;;12.92;46.06;101493.97;5105110;28;20020;-60
2023/04/16 10:39:28;;;;;;;0.98;0.98;;;;;;;13.13;45.84;101495.69;5105038;28;20028;-61
2023/04/16 10:42:07;;;;;;;0.40;0.40;;;;;;;13.28;45.44;101486.97;5104868;28;20053;-61
2023/04/16 10:44:33;;;;;;;0.50;0.50;;;;;;;13.42;45.50;101486.06;5104921;28;20020;-60
2023/04/16 10:46:59;;;;;;;0.68;0.68;;;;;;;13.68;44.99;101485.13;5104279;28;20049;-61
2023/04/16 10:49:26;;;;;;;0.40;0.40;;;;;;;13.81;44.66;101475.50;5104621;28;20047;-61
2023/04/16 10:51:57;;;;;;;0.50;0.50;;;;;;;14.02;44.29;101484.09;5104398;28;20045;-61
2023/04/16 10:54:24;;;;;;;0.40;0.40;;;;;;;14.19;44.28;101486.59;5104250;28;20079;-60
2023/04/16 10:56:50;;;;;;;0.60;0.60;;;;;;;14.24;42.93;101493.56;5104288;28;20468;-61
2023/04/16 10:59:20;;;;;;;0.30;0.30;;;;;;;14.21;42.85;101482.25;5104352;28;20035;-59
2023/04/16 11:01:47;;;;;;;0.32;0.32;;;;;;;14.26;42.07;101485.69;5104554;28;20022;-61
2023/04/16 11:04:19;;;;;;;0.45;0.45;;;;;;;14.18;41.56;101487.50;5104417;28;20024;-60
2023/04/16 11:07:03;;;;;;;0.80;0.80;;;;;;;14.25;41.25;101489.16;5107564;28;20113;-61
2023/04/16 11:09:53;;;;;;;1.30;1.30;;;;;;;14.12;40.61;101489.25;5108404;28;20043;-60
2023/04/16 11:12:19;;;;;;;1.48;0.93;;;;;;;14.10;41.00;101485.81;5108188;28;20435;-62
2023/04/16 11:14:53;;;;;;;0.30;0.30;;;;;;;14.28;40.00;101481.31;5107976;28;20468;-60
2023/04/16 11:17:20;;;;;;;0.40;0.40;;;;;;;14.25;40.08;101476.13;5105295;28;20023;-60
2023/04/16 11:19:46;;;;;;;0.57;0.55;;;;;;;14.40;39.44;101482.13;5106130;28;20024;-60
2023/04/16 11:22:15;;;;;;;0.60;0.60;;;;;;;14.45;39.31;101475.13;5105445;28;20075;-61
2023/04/16 11:24:42;;;;;;;0.40;0.40;;;;;;;14.43;39.37;101479.47;5107030;28;20020;-62
2023/04/16 11:27:07;;;;;;;0.50;0.50;;;;;;;14.29;39.75;101477.84;5107617;28;20047;-62